Kensett, Arkansas
Current Conditions -  °F | °C
As of 1:56 PM on Saturday 25 Oct 2014 (Local Time) from KSRC Reporting Station
Clear Clear  
Wind Chill: 83°   Ceiling: Unl
Heat Index: 85°   Visibility: 10mi
Dew Point: 65°   Wind: 6mph
Humidity: 54%   Direction: NA
Pressure: 30.05"   Gusts: NA
Location:  35.23°N, 91.67°W
Report Text: KSRC 251856Z AUTO VRB05KT 10SM CLR 28/18 A3005 RMK AO2 SLP178 T02830183 TSNO
Loading
Personal Weather Stations






























Interactive Weather Map
Tropical Storm Tracking
New forecast layout! Learn more

10-Day Weather Forecast

Advertisements
Track Severe Weather on mobile